Time;durP1;ratioP1;P1;durP2;ratioP2;P2;SDS_P1;SDS_P2;PMS_P1;PMS_P2;Temp;Humidity;BMP_temperature;BMP_pressure;BME280_temperature;BME280_humidity;BME280_pressure;Samples;Min_cycle;Max_cycle;Signal;HPM_P1;HPM_P2
2021/10/29 00:01:56;;;;;;;;;;;;;;;3.87;88.22;100793.19;4994068;28;866;-63
2021/10/29 00:04:22;;;;;;;;;;;;;;;3.85;88.73;100792.72;4994019;28;811;-63
2021/10/29 00:06:49;;;;;;;;;;;;;;;3.82;88.45;100787.91;4993917;28;867;-63
2021/10/29 00:09:16;;;;;;;;;;;;;;;3.75;88.61;100790.38;4993876;28;925;-61
2021/10/29 00:11:42;;;;;;;;;;;;;;;3.68;88.92;100788.19;4993852;28;866;-61
2021/10/29 00:14:08;;;;;;;;;;;;;;;3.64;88.81;100781.78;4993781;28;902;-62
2021/10/29 00:16:34;;;;;;;;;;;;;;;3.61;88.83;100780.50;4993848;28;854;-63
2021/10/29 00:19:01;;;;;;;;;;;;;;;3.60;88.94;100769.91;5002683;28;1068;-63
2021/10/29 00:21:27;;;;;;;;;;;;;;;3.62;89.12;100773.91;5013164;28;1985;-63
2021/10/29 00:23:56;;;;;;;;;;;;;;;3.66;89.38;100769.38;5013206;28;834;-62
2021/10/29 00:26:23;;;;;;;;;;;;;;;3.70;89.92;100764.03;5013153;28;866;-61
2021/10/29 00:28:49;;;;;;;;;;;;;;;3.75;89.28;100752.09;5013002;28;827;-61
2021/10/29 00:31:16;;;;;;;;;;;;;;;3.81;90.12;100754.31;5013131;28;862;-61
2021/10/29 00:33:42;;;;;;;;;;;;;;;3.82;89.24;100766.84;5012949;28;823;-61
2021/10/29 00:36:09;;;;;;;;;;;;;;;3.93;89.51;100758.25;5012937;28;974;-61
2021/10/29 00:38:36;;;;;;;;;;;;;;;3.89;88.88;100758.91;5013176;28;811;-61
2021/10/29 00:41:02;;;;;;;;;;;;;;;3.89;89.17;100752.66;5013083;28;1894;-62
2021/10/29 00:43:29;;;;;;;;;;;;;;;3.92;89.61;100748.44;5012800;28;850;-63
2021/10/29 00:45:55;;;;;;;;;;;;;;;3.92;89.19;100748.44;5012970;28;815;-63
2021/10/29 00:48:22;;;;;;;;;;;;;;;3.86;89.27;100751.38;5012808;28;807;-61
2021/10/29 00:50:49;;;;;;;;;;;;;;;3.86;89.68;100751.38;5012897;28;862;-63
2021/10/29 00:53:15;;;;;;;;;;;;;;;3.87;89.39;100746.72;5012922;28;862;-63
2021/10/29 00:55:42;;;;;;;;;;;;;;;3.87;89.42;100733.81;5012818;28;843;-62
2021/10/29 00:58:08;;;;;;;;;;;;;;;3.98;89.33;100741.63;5012857;28;811;-62
2021/10/29 01:00:34;;;;;;;;;;;;;;;3.98;89.08;100747.09;5012673;28;1914;-63
2021/10/29 01:03:01;;;;;;;;;;;;;;;3.93;89.08;100745.38;5012142;28;901;-63
2021/10/29 01:05:28;;;;;;;;;;;;;;;3.92;89.30;100743.75;5012436;28;831;-62
2021/10/29 01:07:57;;;;;;;;;;;;;;;3.92;89.20;100737.50;5012390;28;799;-62
2021/10/29 01:10:27;;;;;;;;;;;;;;;3.88;89.27;100740.91;5012864;28;791;-61
2021/10/29 01:12:53;;;;;;;;;;;;;;;3.92;89.16;100732.81;5012302;28;831;-62
2021/10/29 01:15:20;;;;;;;;;;;;;;;3.97;89.43;100732.63;5010993;28;1328;-62
2021/10/29 01:17:47;;;;;;;;;;;;;;;4.01;88.98;100735.47;5012375;28;885;-62
2021/10/29 01:20:23;;;;;;;;;;;;;;;4.04;89.04;100741.09;5012042;28;1985;-63
2021/10/29 01:22:50;;;;;;;;;;;;;;;4.05;88.78;100733.66;5012119;28;803;-63
2021/10/29 01:25:17;;;;;;;;;;;;;;;4.05;88.83;100728.19;5012140;28;791;-63
2021/10/29 01:27:44;;;;;;;;;;;;;;;3.99;88.79;100724.88;5012112;28;803;-62
2021/10/29 01:30:11;;;;;;;;;;;;;;;3.91;88.48;100725.75;5012059;28;850;-63
2021/10/29 01:32:38;;;;;;;;;;;;;;;3.92;89.17;100724.63;5012339;28;871;-63
2021/10/29 01:35:07;;;;;;;;;;;;;;;3.89;88.70;100726.09;5012000;28;893;-63
2021/10/29 01:37:40;;;;;;;;;;;;;;;3.83;88.85;100723.91;5012064;28;803;-63
2021/10/29 01:40:08;;;;;;;;;;;;;;;3.74;88.61;100734.09;5011943;28;1894;-63
2021/10/29 01:42:35;;;;;;;;;;;;;;;3.70;89.02;100727.69;5012382;28;768;-63
2021/10/29 01:45:02;;;;;;;;;;;;;;;3.68;89.21;100714.34;5011919;28;803;-63
2021/10/29 01:47:29;;;;;;;;;;;;;;;3.67;88.88;100724.50;5011929;28;882;-62
2021/10/29 01:49:55;;;;;;;;;;;;;;;3.66;89.17;100728.34;5012166;28;826;-63
2021/10/29 01:52:22;;;;;;;;;;;;;;;3.60;88.75;100713.28;5012080;28;799;-63
2021/10/29 01:54:49;;;;;;;;;;;;;;;3.54;88.90;100720.09;5011738;28;846;-63
2021/10/29 01:57:15;;;;;;;;;;;;;;;3.52;88.80;100724.28;5011634;28;822;-63
2021/10/29 01:59:42;;;;;;;;;;;;;;;3.50;89.49;100716.44;4994124;28;1918;-63
2021/10/29 02:02:09;;;;;;;;;;;;;;;3.43;88.92;100716.94;5011683;28;803;-63
2021/10/29 02:04:35;;;;;;;;;;;;;;;3.40;89.44;100712.16;5011704;28;854;-63
2021/10/29 02:07:02;;;;;;;;;;;;;;;3.44;89.28;100717.75;5011644;28;814;-63
2021/10/29 02:09:29;;;;;;;;;;;;;;;3.39;89.16;100713.28;5011648;28;859;-63
2021/10/29 02:11:55;;;;;;;;;;;;;;;3.36;89.19;100718.59;5011585;28;788;-63
2021/10/29 02:14:22;;;;;;;;;;;;;;;3.30;89.01;100712.53;5015607;28;831;-63
2021/10/29 02:16:49;;;;;;;;;;;;;;;3.26;88.96;100715.13;5015570;28;912;-63
2021/10/29 02:19:16;;;;;;;;;;;;;;;3.21;89.28;100728.19;5015496;28;1332;-63
2021/10/29 02:21:43;;;;;;;;;;;;;;;3.22;89.36;100727.84;5015603;28;1953;-63
2021/10/29 02:24:10;;;;;;;;;;;;;;;3.30;89.70;100726.19;5015390;28;847;-63
2021/10/29 02:26:36;;;;;;;;;;;;;;;3.41;90.24;100719.19;5015332;28;839;-63
2021/10/29 02:29:04;;;;;;;;;;;;;;;3.52;90.19;100719.63;5015295;28;910;-63
2021/10/29 02:31:30;;;;;;;;;;;;;;;3.62;90.15;100712.94;5015377;28;878;-63
2021/10/29 02:33:57;;;;;;;;;;;;;;;3.73;89.82;100727.03;5015247;28;823;-63
2021/10/29 02:36:24;;;;;;;;;;;;;;;3.74;89.49;100721.22;5015116;28;866;-63
2021/10/29 02:38:51;;;;;;;;;;;;;;;3.68;89.40;100719.81;5015246;28;853;-63
2021/10/29 02:41:17;;;;;;;;;;;;;;;3.67;89.25;100718.25;5015038;28;1952;-63
2021/10/29 02:43:46;;;;;;;;;;;;;;;3.56;89.10;100712.34;5015157;28;892;-63
2021/10/29 02:46:13;;;;;;;;;;;;;;;3.53;89.10;100717.69;5014972;28;858;-62
2021/10/29 02:48:40;;;;;;;;;;;;;;;3.47;89.34;100723.34;5015058;28;835;-63
2021/10/29 02:51:06;;;;;;;;;;;;;;;3.39;89.32;100723.41;5014876;28;839;-63
2021/10/29 02:53:35;;;;;;;;;;;;;;;3.35;88.69;100728.75;5015001;28;787;-63
2021/10/29 02:56:03;;;;;;;;;;;;;;;3.38;89.52;100725.34;5014705;28;796;-63
2021/10/29 02:58:31;;;;;;;;;;;;;;;3.90;91.02;100724.16;4997144;28;1360;-63
2021/10/29 03:00:59;;;;;;;;;;;;;;;4.49;91.15;100717.63;5015421;28;1957;-63
2021/10/29 03:03:26;;;;;;;;;;;;;;;5.15;89.95;100715.88;5014716;28;890;-62
2021/10/29 03:05:52;;;;;;;;;;;;;;;5.67;87.69;100715.09;5014670;28;847;-63
2021/10/29 03:08:19;;;;;;;;;;;;;;;5.96;86.99;100718.72;5014563;28;783;-62
2021/10/29 03:10:45;;;;;;;;;;;;;;;6.22;85.56;100721.78;5014534;28;903;-63
2021/10/29 03:13:12;;;;;;;;;;;;;;;6.36;85.09;100713.16;5014515;28;827;-63
2021/10/29 03:15:38;;;;;;;;;;;;;;;6.50;84.22;100715.47;5014499;28;941;-63
2021/10/29 03:18:05;;;;;;;;;;;;;;;6.53;83.68;100710.06;5014311;28;1412;-63
2021/10/29 03:20:31;;;;;;;;;;;;;;;6.60;82.35;100706.72;5014373;28;1921;-63
2021/10/29 03:22:58;;;;;;;;;;;;;;;6.70;82.40;100716.34;5014399;28;791;-63
2021/10/29 03:25:25;;;;;;;;;;;;;;;6.71;81.41;100718.75;5013343;28;784;-63
2021/10/29 03:27:51;;;;;;;;;;;;;;;6.65;81.62;100713.88;5014425;28;811;-63
2021/10/29 03:30:20;;;;;;;;;;;;;;;6.58;81.49;100716.47;5014417;28;847;-63
2021/10/29 03:32:47;;;;;;;;;;;;;;;6.50;82.01;100724.50;5014429;28;855;-64
2021/10/29 03:35:13;;;;;;;;;;;;;;;6.65;81.26;100714.69;5014156;28;810;-63
2021/10/29 03:45:55;;;;;;;;;;;;;;;6.89;78.96;100716.47;5013964;28;644;-63
2021/10/29 03:48:32;;;;;;;;;;;;;;;6.83;78.92;100712.41;5013941;28;819;-63
2021/10/29 03:53:43;;;;;;;;;;;;;;;6.91;78.89;100716.09;5013750;28;762;-63
2021/10/29 03:56:18;;;;;;;;;;;;;;;7.06;78.15;100709.00;5013620;28;882;-63
2021/10/29 03:58:46;;;;;;;;;;;;;;;7.14;77.45;100721.75;5014020;28;861;-62
2021/10/29 04:01:12;;;;;;;;;;;;;;;7.09;76.68;100722.84;5013744;28;1890;-63
2021/10/29 04:03:39;;;;;;;;;;;;;;;6.27;75.51;100723.47;5014088;28;973;-63
2021/10/29 04:06:05;;;;;;;;;;;;;;;5.23;77.60;100720.44;5014319;28;781;-63
2021/10/29 04:08:32;;;;;;;;;;;;;;;4.40;78.68;100722.41;5013909;28;784;-63
2021/10/29 04:10:58;;;;;;;;;;;;;;;3.80;79.96;100730.84;5014103;28;849;-63
2021/10/29 04:13:33;;;;;;;;;;;;;;;3.43;80.90;100725.13;5013503;28;831;-63
2021/10/29 04:15:59;;;;;;;;;;;;;;;3.22;81.95;100713.38;5013356;28;815;-63
2021/10/29 04:18:26;;;;;;;;;;;;;;;3.16;82.49;100718.25;5013226;28;1095;-63
2021/10/29 04:20:53;;;;;;;;;;;;;;;3.29;83.95;100721.88;5013272;28;1922;-63
2021/10/29 04:23:20;;;;;;;;;;;;;;;3.38;84.00;100724.53;5013250;28;870;-63
2021/10/29 04:25:46;;;;;;;;;;;;;;;3.54;84.68;100722.84;5013128;28;831;-63
2021/10/29 04:28:13;;;;;;;;;;;;;;;3.64;83.98;100729.81;5013151;28;893;-63
2021/10/29 04:30:43;;;;;;;;;;;;;;;3.60;84.22;100723.41;5013079;28;803;-63
2021/10/29 04:33:10;;;;;;;;;;;;;;;3.51;84.61;100731.69;4995402;28;1229;-63
2021/10/29 04:35:38;;;;;;;;;;;;;;;3.46;84.67;100724.47;5012936;28;839;-63
2021/10/29 04:38:06;;;;;;;;;;;;;;;3.31;84.63;100732.44;5012950;28;858;-63
2021/10/29 04:40:33;;;;;;;;;;;;;;;3.16;85.17;100725.63;5012838;28;1894;-63
2021/10/29 04:43:01;;;;;;;;;;;;;;;3.28;86.29;100739.38;5012867;28;867;-63
2021/10/29 04:45:28;;;;;;;;;;;;;;;3.47;85.96;100734.28;5012844;28;870;-63
2021/10/29 04:47:55;;;;;;;;;;;;;;;3.55;86.00;100746.28;5011535;28;1204;-63
2021/10/29 04:50:21;;;;;;;;;;;;;;;3.61;86.11;100738.72;5012758;28;862;-63
2021/10/29 04:52:48;;;;;;;;;;;;;;;3.62;86.11;100738.34;5012809;28;764;-63
2021/10/29 04:55:15;;;;;;;;;;;;;;;3.82;86.21;100738.69;5012503;28;893;-63
2021/10/29 04:57:40;;;;;;;;;;;;;;;3.99;85.53;100743.22;5012640;28;815;-63
2021/10/29 05:00:07;;;;;;;;;;;;;;;3.91;85.55;100747.63;5012506;28;1930;-62
2021/10/29 05:02:34;;;;;;;;;;;;;;;3.84;85.85;100741.88;5012549;28;860;-63
2021/10/29 05:05:03;;;;;;;;;;;;;;;3.84;86.17;100753.66;5011012;28;1340;-63
2021/10/29 05:07:30;;;;;;;;;;;;;;;3.96;85.75;100752.91;4994784;28;1390;-63
2021/10/29 05:09:57;;;;;;;;;;;;;;;3.96;85.78;100754.84;4994800;28;1284;-63
2021/10/29 05:17:36;;;;;;;;;;;;;;;3.98;86.37;100758.03;5878062;23;1690;-60
2021/10/29 05:20:05;;;;;;;;;;;;;;;4.09;86.19;100751.81;5051926;28;1913;-59
2021/10/29 05:22:30;;;;;;;;;;;;;;;4.30;86.15;100751.00;5052199;28;928;-59
2021/10/29 05:24:57;;;;;;;;;;;;;;;4.52;86.21;100749.78;5051820;28;810;-59
2021/10/29 05:27:23;;;;;;;;;;;;;;;4.89;85.76;100747.16;5051779;28;814;-58
2021/10/29 05:29:49;;;;;;;;;;;;;;;5.25;85.13;100748.31;5051943;28;913;-59
2021/10/29 05:32:16;;;;;;;;;;;;;;;5.51;84.99;100748.72;5051745;28;893;-59
2021/10/29 05:34:43;;;;;;;;;;;;;;;5.89;83.61;100763.97;5051676;28;833;-59
2021/10/29 05:37:09;;;;;;;;;;;;;;;6.28;83.26;100761.56;5033939;28;1016;-60
2021/10/29 05:39:36;;;;;;;;;;;;;;;6.70;81.70;100758.38;5051567;28;837;-59
2021/10/29 05:42:03;;;;;;;;;;;;;;;6.99;80.46;100753.59;5051571;28;1890;-59
2021/10/29 05:44:29;;;;;;;;;;;;;;;7.09;80.46;100761.31;5051781;28;905;-60
2021/10/29 05:46:56;;;;;;;;;;;;;;;7.21;80.06;100762.38;5050986;28;847;-60
2021/10/29 05:49:24;;;;;;;;;;;;;;;7.27;79.89;100772.75;5033631;28;1544;-60
2021/10/29 05:51:52;;;;;;;;;;;;;;;7.51;79.48;100763.50;5051503;28;885;-60
2021/10/29 05:54:39;;;;;;;;;;;;;;;8.07;78.20;100770.59;5033495;28;929;-60
2021/10/29 05:57:06;;;;;;;;;;;;;;;8.76;76.19;100762.50;5051439;28;897;-60
2021/10/29 05:59:35;;;;;;;;;;;;;;;9.27;74.79;100764.13;5051314;28;878;-60
2021/10/29 06:02:03;;;;;;;;;;;;;;;9.53;71.51;100757.03;5051576;28;1890;-60
2021/10/29 06:04:30;;;;;;;;;;;;;;;9.81;71.02;100759.38;5033452;28;1218;-60
2021/10/29 06:06:57;;;;;;;;;;;;;;;10.19;70.71;100768.56;5051295;28;802;-60
2021/10/29 06:09:24;;;;;;;;;;;;;;;10.71;69.15;100760.44;5051340;28;893;-60
2021/10/29 06:11:51;;;;;;;;;;;;;;;10.98;67.24;100755.56;5051276;28;897;-61
2021/10/29 06:14:17;;;;;;;;;;;;;;;11.22;66.88;100757.75;5051223;28;851;-61
2021/10/29 06:16:44;;;;;;;;;;;;;;;11.42;65.79;100757.50;5051171;28;843;-61
2021/10/29 06:19:11;;;;;;;;;;;;;;;11.75;65.35;100759.28;5050956;28;1206;-61
2021/10/29 06:21:48;;;;;;;;;;;;;;;11.89;64.29;100763.34;5051123;28;1918;-61
2021/10/29 06:24:16;;;;;;;;;;;;;;;11.92;63.81;100763.34;5051210;28;898;-62
2021/10/29 06:26:56;;;;;;;;;;;;;;;12.25;63.19;100767.06;5051174;28;990;-61
2021/10/29 06:29:23;;;;;;;;;;;;;;;12.66;61.31;100767.56;5051580;28;799;-61
2021/10/29 06:31:49;;;;;;;;;;;;;;;12.70;60.66;100770.38;5051640;28;881;-61
2021/10/29 06:34:16;;;;;;;;;;;;;;;12.81;60.92;100775.94;5051431;28;830;-61
2021/10/29 06:36:42;;;;;;;;;;;;;;;12.78;60.30;100771.97;5051135;28;1265;-61
2021/10/29 06:39:09;;;;;;;;;;;;;;;12.80;60.47;100777.09;5051024;28;814;-62
2021/10/29 06:41:36;;;;;;;;;;;;;;;13.07;60.17;100781.09;5050882;28;1897;-62
2021/10/29 06:44:18;;;;;;;;;;;;;;;13.40;59.07;100770.00;5050947;28;981;-62
2021/10/29 06:49:16;;;;;;;;;;;;;;;13.52;59.15;100768.81;5050919;28;791;-62
2021/10/29 06:59:14;;;;;;;;;;;;;;;14.13;58.10;100761.09;5017492;28;1362;-62
2021/10/29 07:00:26;;;;;;;;;;;;;;;13.64;58.83;100773.97;5052644;28;1873;-61
2021/10/29 07:41:02;;;;;;;;;;;;;;;16.36;49.51;100768.34;5053739;28;1878;-61
2021/10/29 07:43:38;;;;;;;;;;;;;;;16.20;49.78;100762.63;5053756;28;921;-62
2021/10/29 07:46:05;;;;;;;;;;;;;;;16.27;50.09;100765.31;5053670;28;822;-62
2021/10/29 07:48:33;;;;;;;;;;;;;;;16.44;48.97;100757.91;5053581;28;1046;-61
2021/10/29 07:51:04;;;;;;;;;;;;;;;16.22;49.33;100766.56;5053644;28;901;-62
2021/10/29 07:53:31;;;;;;;;;;;;;;;16.12;49.67;100770.28;5053536;28;814;-62
2021/10/29 07:56:01;;;;;;;;;;;;;;;16.07;49.91;100765.16;5053504;28;921;-62
2021/10/29 07:58:27;;;;;;;;;;;;;;;15.98;50.48;100764.84;5053429;28;904;-62
2021/10/29 08:00:53;;;;;;;;;;;;;;;15.99;50.06;100761.66;5053477;28;1955;-62
2021/10/29 08:03:20;;;;;;;;;;;;;;;16.17;49.24;100764.22;5053259;28;870;-62
2021/10/29 08:05:46;;;;;;;;;;;;;;;16.11;49.51;100763.91;5053352;28;854;-62
2021/10/29 08:08:17;;;;;;;;;;;;;;;16.00;49.52;100760.47;5053500;28;834;-62
2021/10/29 08:10:44;;;;;;;;;;;;;;;15.81;49.03;100758.28;5052851;28;858;-61
2021/10/29 08:13:11;;;;;;;;;;;;;;;15.97;50.13;100752.13;5053208;28;822;-62
2021/10/29 08:15:38;;;;;;;;;;;;;;;16.05;49.11;100757.22;5053034;28;909;-61
2021/10/29 08:18:06;;;;;;;;;;;;;;;16.28;49.63;100764.88;5052826;28;1182;-62
2021/10/29 08:20:34;;;;;;;;;;;;;;;16.50;48.69;100768.16;5052963;28;1910;-61
2021/10/29 08:23:01;;;;;;;;;;;;;;;16.43;47.82;100765.50;5053024;28;854;-62
2021/10/29 08:25:29;;;;;;;;;;;;;;;16.53;47.29;100767.31;5034920;28;1319;-62
2021/10/29 08:27:58;;;;;;;;;;;;;;;16.58;48.02;100751.31;5052840;28;916;-62
2021/10/29 08:30:26;;;;;;;;;;;;;;;16.90;47.50;100754.47;5052782;28;811;-62
2021/10/29 08:32:52;;;;;;;;;;;;;;;16.79;47.30;100755.78;5052793;28;819;-62
2021/10/29 08:35:19;;;;;;;;;;;;;;;16.73;47.49;100759.06;5052683;28;822;-62
2021/10/29 08:37:47;;;;;;;;;;;;;;;16.81;46.83;100753.41;5052688;28;881;-62
2021/10/29 08:40:13;;;;;;;;;;;;;;;16.20;47.54;100765.41;5052438;28;1956;-61
2021/10/29 08:42:40;;;;;;;;;;;;;;;15.36;49.13;100752.75;5034759;28;1480;-61
2021/10/29 08:45:08;;;;;;;;;;;;;;;14.87;51.12;100755.53;5052680;28;826;-59
2021/10/29 08:47:39;;;;;;;;;;;;;;;14.57;51.78;100764.47;5052494;28;799;-61
2021/10/29 08:50:07;;;;;;;;;;;;;;;14.90;51.44;100760.28;5052702;28;870;-61
2021/10/29 08:52:33;;;;;;;;;;;;;;;15.39;50.41;100755.50;5052458;28;819;-61
2021/10/29 08:55:01;;;;;;;;;;;;;;;15.58;49.80;100742.19;5052456;28;866;-61
2021/10/29 08:57:28;;;;;;;;;;;;;;;15.84;49.77;100744.31;5052341;28;984;-61
2021/10/29 08:59:57;;;;;;;;;;;;;;;15.98;49.54;100736.97;5052239;28;1957;-61
2021/10/29 09:02:27;;;;;;;;;;;;;;;16.12;48.52;100743.16;5052215;28;834;-61
2021/10/29 09:05:08;;;;;;;;;;;;;;;15.98;47.71;100742.56;5052177;28;928;-61
2021/10/29 09:32:40;;;;;;;;;;;;;;;17.28;44.45;100725.50;5051830;28;624;-61
2021/10/29 09:35:09;;;;;;;;;;;;;;;17.30;43.74;100721.09;5051710;28;838;-61
2021/10/29 09:37:55;;;;;;;;;;;;;;;17.17;43.72;100720.09;5051644;28;845;-61
2021/10/29 09:40:22;;;;;;;;;;;;;;;17.05;44.07;100715.16;5051697;28;1886;-61
2021/10/29 09:42:51;;;;;;;;;;;;;;;17.27;44.03;100713.53;5051402;28;1084;-60
2021/10/29 09:45:23;;;;;;;;;;;;;;;17.65;43.81;100704.84;5051628;28;908;-61
2021/10/29 09:47:56;;;;;;;;;;;;;;;18.02;44.46;100714.09;5052351;28;849;-61
2021/10/29 09:50:33;;;;;;;;;;;;;;;18.16;44.49;100704.63;5051574;28;878;-61
2021/10/29 09:53:06;;;;;;;;;;;;;;;18.12;43.63;100701.13;5051457;28;842;-60
2021/10/29 09:58:18;;;;;;;;;;;;;;;18.12;43.79;100696.31;5051703;28;1166;-60
2021/10/29 10:00:46;;;;;;;;;;;;;;;18.43;42.69;100695.22;5051352;28;1917;-60
2021/10/29 10:03:16;;;;;;;;;;;;;;;18.42;41.71;100696.47;5051676;28;818;-60
2021/10/29 10:05:43;;;;;;;;;;;;;;;18.22;42.67;100696.50;5051503;28;949;-60
2021/10/29 10:08:11;;;;;;;;;;;;;;;18.24;43.40;100692.03;5051438;28;791;-60
2021/10/29 10:10:39;;;;;;;;;;;;;;;18.57;42.51;100694.91;5051241;28;857;-60
2021/10/29 10:13:06;;;;;;;;;;;;;;;18.80;43.11;100691.19;5051381;28;810;-60
2021/10/29 10:15:35;;;;;;;;;;;;;;;18.96;42.20;100693.97;5051173;28;847;-60
2021/10/29 10:18:02;;;;;;;;;;;;;;;18.97;41.84;100678.75;5050901;28;1362;-60
2021/10/29 10:20:29;;;;;;;;;;;;;;;18.93;40.87;100671.66;5049874;28;1917;-60
2021/10/29 10:22:57;;;;;;;;;;;;;;;18.64;42.73;100671.56;5033301;28;1157;-60
2021/10/29 10:25:38;;;;;;;;;;;;;;;18.77;42.53;100676.00;5051205;28;814;-60
2021/10/29 10:45:03;;;;;;;;;;;;;;;18.86;41.74;100674.63;5055148;28;1303;-60
2021/10/29 10:47:33;;;;;;;;;;;;;;;19.08;41.28;100669.28;5054707;28;866;-60
2021/10/29 10:50:10;;;;;;;;;;;;;;;19.16;40.74;100670.66;5054774;28;795;-60
2021/10/29 10:53:04;;;;;;;;;;;;;;;19.32;40.95;100667.03;5054773;28;857;-60
2021/10/29 10:55:32;;;;;;;;;;;;;;;19.30;41.23;100678.69;5029145;28;1281;-60
2021/10/29 10:58:23;;;;;;;;;;;;;;;19.20;41.57;100667.75;5054552;28;949;-60
2021/10/29 11:00:59;;;;;;;;;;;;;;;19.21;41.61;100664.53;5054380;28;1890;-60
2021/10/29 11:06:56;;;;;;;;;;;;;;;18.87;41.63;100659.41;5009982;28;1490;-60
2021/10/29 11:09:57;;;;;;;;;;;;;;;19.11;41.19;100648.78;5054637;28;798;-59
2021/10/29 11:12:24;;;;;;;;;;;;;;;19.23;41.51;100639.66;5054178;28;795;-60
2021/10/29 11:15:09;;;;;;;;;;;;;;;19.13;41.11;100644.31;5054636;28;838;-60
2021/10/29 11:17:42;;;;;;;;;;;;;;;19.18;41.16;100631.75;5054305;28;993;-60
2021/10/29 11:20:10;;;;;;;;;;;;;;;19.04;40.34;100638.56;5053901;28;1906;-60
2021/10/29 11:22:43;;;;;;;;;;;;;;;19.09;40.98;100642.81;5054202;28;807;-60
2021/10/29 11:25:13;;;;;;;;;;;;;;;19.15;40.83;100633.44;5054117;28;791;-60
2021/10/29 11:27:42;;;;;;;;;;;;;;;19.20;41.28;100629.31;5054069;28;901;-60
2021/10/29 11:30:09;;;;;;;;;;;;;;;19.36;40.74;100631.28;5036540;28;819;-60
2021/10/29 11:32:38;;;;;;;;;;;;;;;19.19;41.02;100627.75;5019486;28;1382;-60
2021/10/29 11:35:04;;;;;;;;;;;;;;;19.36;41.20;100626.47;5036432;28;838;-60
2021/10/29 11:37:35;;;;;;;;;;;;;;;19.42;40.86;100628.75;5053831;28;866;-60
2021/10/29 11:40:03;;;;;;;;;;;;;;;19.55;40.55;100629.56;5053634;28;1945;-60
2021/10/29 11:42:29;;;;;;;;;;;;;;;19.73;40.11;100612.22;5053666;28;814;-61
2021/10/29 11:44:58;;;;;;;;;;;;;;;19.70;39.97;100621.53;5053059;28;831;-60
2021/10/29 11:47:24;;;;;;;;;;;;;;;19.61;40.68;100616.56;5053704;28;826;-60
2021/10/29 11:49:51;;;;;;;;;;;;;;;19.47;40.23;100619.78;5053733;28;799;-60
2021/10/29 11:52:21;;;;;;;;;;;;;;;19.09;41.16;100617.63;5053579;28;893;-60
2021/10/29 11:54:50;;;;;;;;;;;;;;;19.14;41.32;100617.88;5053547;28;850;-60
2021/10/29 12:00:08;;;;;;;;;;;;;;;19.49;40.33;100617.31;5053483;28;676;-60
2021/10/29 12:08:23;;;;;;;;;;;;;;;19.32;40.54;100611.75;5053656;28;621;-60
2021/10/29 12:10:56;;;;;;;;;;;;;;;19.43;40.71;100617.06;5053217;28;811;-60
2021/10/29 12:13:25;;;;;;;;;;;;;;;19.53;40.20;100618.00;5053187;28;842;-60
2021/10/29 12:15:51;;;;;;;;;;;;;;;19.35;40.17;100613.69;5053114;28;937;-60
2021/10/29 12:18:22;;;;;;;;;;;;;;;18.89;41.58;100609.34;5053068;28;1348;-60
2021/10/29 12:20:51;;;;;;;;;;;;;;;19.07;41.05;100614.47;5035225;28;1969;-60
2021/10/29 12:23:22;;;;;;;;;;;;;;;19.32;40.33;100610.97;5053005;28;898;-60
2021/10/29 12:30:53;;;;;;;;;;;;;;;18.94;40.23;100623.59;5052812;28;758;-60
2021/10/29 13:03:46;;;;;;;;;;;;;;;18.77;42.22;100614.38;5052562;28;632;-60
2021/10/29 13:06:16;;;;;;;;;;;;;;;18.90;41.69;100622.13;5052212;28;767;-60
2021/10/29 13:08:47;;;;;;;;;;;;;;;19.07;41.95;100620.06;5052354;28;865;-60
2021/10/29 13:11:14;;;;;;;;;;;;;;;19.05;41.54;100609.28;5052006;28;893;-60
2021/10/29 13:13:51;;;;;;;;;;;;;;;18.93;42.64;100607.25;5052108;28;881;-60
2021/10/29 13:16:18;;;;;;;;;;;;;;;18.91;41.99;100610.47;5034099;28;1161;-60
2021/10/29 13:24:16;;;;;;;;;;;;;;;18.42;42.97;100620.91;5051940;28;617;-60
2021/10/29 13:56:23;;;;;;;;;;;;;;;16.20;46.35;100623.16;5051413;28;673;-60
2021/10/29 14:16:20;;;;;;;;;;;;;;;15.89;48.71;100623.19;5051407;28;802;-60
2021/10/29 14:31:38;;;;;;;;;;;;;;;14.02;53.41;100624.94;5055117;28;811;-60
2021/10/29 14:34:29;;;;;;;;;;;;;;;13.89;53.93;100630.19;5055057;28;908;-60
2021/10/29 14:39:31;;;;;;;;;;;;;;;13.66;55.32;100629.91;5055280;28;786;-60
2021/10/29 14:42:14;;;;;;;;;;;;;;;13.56;55.98;100630.72;5054913;28;2036;-60
2021/10/29 14:47:34;;;;;;;;;;;;;;;13.21;57.35;100638.75;5054841;28;711;-60
2021/10/29 14:53:20;;;;;;;;;;;;;;;12.85;58.40;100646.34;5055094;28;676;-60
2021/10/29 15:01:32;;;;;;;;;;;;;;;12.42;60.28;100644.34;5054693;28;1951;-60
2021/10/29 15:28:36;;;;;;;;;;;;;;;10.51;65.96;100641.00;5054395;28;668;-59
2021/10/29 15:33:48;;;;;;;;;;;;;;;10.20;67.15;100654.91;5053975;28;657;-60
2021/10/29 15:44:41;;;;;;;;;;;;;;;9.65;69.57;100662.97;5028844;28;1104;-59
2021/10/29 15:47:09;;;;;;;;;;;;;;;9.46;70.18;100677.69;5053981;28;874;-59
2021/10/29 15:49:40;;;;;;;;;;;;;;;9.33;70.84;100668.06;5053482;28;1148;-60
2021/10/29 15:52:15;;;;;;;;;;;;;;;9.26;71.50;100676.22;5053822;28;855;-59
2021/10/29 15:54:49;;;;;;;;;;;;;;;9.14;72.23;100674.50;5053611;28;898;-59
2021/10/29 15:57:22;;;;;;;;;;;;;;;8.96;72.69;100672.25;5053607;28;831;-60
2021/10/29 15:59:59;;;;;;;;;;;;;;;8.87;73.58;100674.47;5053538;28;842;-60
2021/10/29 16:02:40;;;;;;;;;;;;;;;8.83;73.72;100686.59;5053382;28;1886;-60
2021/10/29 16:18:50;;;;;;;;;;;;;;;8.69;76.52;100695.44;5053261;28;1353;-60
2021/10/29 16:21:17;;;;;;;;;;;;;;;8.61;77.05;100705.53;5053018;28;1981;-60
2021/10/29 16:23:43;;;;;;;;;;;;;;;8.49;77.20;100701.00;5052999;28;855;-59
2021/10/29 16:26:13;;;;;;;;;;;;;;;8.43;77.46;100704.41;5035047;28;1240;-61
2021/10/29 16:28:40;;;;;;;;;;;;;;;8.42;78.41;100713.84;5053005;28;885;-59
2021/10/29 16:31:11;;;;;;;;;;;;;;;8.41;78.50;100712.25;5052626;28;798;-60
2021/10/29 16:33:37;;;;;;;;;;;;;;;8.33;78.92;100712.09;5053207;28;885;-60
2021/10/29 16:36:04;;;;;;;;;;;;;;;8.22;79.95;100713.84;5052744;28;802;-60
2021/10/29 16:38:32;;;;;;;;;;;;;;;8.31;80.27;100711.66;5052750;28;870;-60
2021/10/29 16:40:59;;;;;;;;;;;;;;;8.38;79.86;100713.75;5034723;28;1914;-60
2021/10/29 16:43:26;;;;;;;;;;;;;;;8.35;80.33;100715.28;5052688;28;826;-60
2021/10/29 16:45:53;;;;;;;;;;;;;;;8.33;80.52;100719.56;5052644;28;834;-60
2021/10/29 16:48:22;;;;;;;;;;;;;;;8.32;81.76;100720.72;5052611;28;818;-60
2021/10/29 16:50:50;;;;;;;;;;;;;;;8.44;81.78;100715.06;5052593;28;827;-60
2021/10/29 16:53:17;;;;;;;;;;;;;;;8.56;81.55;100720.41;5052368;28;1016;-60
2021/10/29 16:55:43;;;;;;;;;;;;;;;8.63;81.70;100713.44;5052433;28;811;-60
2021/10/29 16:58:10;;;;;;;;;;;;;;;8.58;81.43;100729.13;5052365;28;842;-60
2021/10/29 17:00:37;;;;;;;;;;;;;;;8.42;81.47;100722.13;5052326;28;1882;-60
2021/10/29 17:03:04;;;;;;;;;;;;;;;8.37;81.88;100717.69;5052373;28;815;-60
2021/10/29 17:05:31;;;;;;;;;;;;;;;8.27;81.81;100726.53;5052144;28;881;-60
2021/10/29 17:07:57;;;;;;;;;;;;;;;8.24;82.07;100730.03;5052165;28;803;-60
2021/10/29 17:10:24;;;;;;;;;;;;;;;8.28;82.37;100726.16;5052153;28;819;-59
2021/10/29 17:12:51;;;;;;;;;;;;;;;8.33;82.40;100725.06;5052095;28;810;-60
2021/10/29 17:15:18;;;;;;;;;;;;;;;8.48;82.99;100734.44;5052052;28;850;-60
2021/10/29 17:17:47;;;;;;;;;;;;;;;8.52;82.51;100730.56;5052290;28;1075;-60
2021/10/29 17:20:16;;;;;;;;;;;;;;;8.50;82.52;100732.91;5051606;28;1898;-60
2021/10/29 17:22:43;;;;;;;;;;;;;;;8.41;82.40;100735.09;5052206;28;877;-60
2021/10/29 17:25:11;;;;;;;;;;;;;;;8.42;82.84;100725.66;5051897;28;838;-60
2021/10/29 17:27:38;;;;;;;;;;;;;;;8.41;82.93;100729.59;5051862;28;835;-60
2021/10/29 17:30:05;;;;;;;;;;;;;;;8.33;83.14;100733.34;5051838;28;869;-60
2021/10/29 17:32:31;;;;;;;;;;;;;;;8.27;82.90;100730.06;5051813;28;803;-60
2021/10/29 17:34:59;;;;;;;;;;;;;;;8.27;83.44;100729.28;5051561;28;814;-60
2021/10/29 17:37:30;;;;;;;;;;;;;;;8.30;83.83;100729.34;5051997;28;818;-60
2021/10/29 17:39:57;;;;;;;;;;;;;;;8.38;83.52;100728.34;5051716;28;810;-60
2021/10/29 17:42:24;;;;;;;;;;;;;;;8.35;83.69;100728.25;5051468;28;1901;-60
2021/10/29 17:44:51;;;;;;;;;;;;;;;8.30;83.84;100732.13;5051096;28;869;-60
2021/10/29 17:47:17;;;;;;;;;;;;;;;8.31;84.05;100733.69;5051580;28;834;-60
2021/10/29 17:49:44;;;;;;;;;;;;;;;8.28;83.98;100730.84;5033732;28;1355;-60
2021/10/29 17:52:11;;;;;;;;;;;;;;;8.20;84.15;100729.16;5051480;28;858;-60